Portada
METAR-TAF:

METAR-TAF

Aeroports :

Ohrid, Macedònia

latitud: 41-07N, longitud: 020-48E, altitud: 760 m

Observació

L'informe es va fer fa 13 hores i 5 minuts, a les 13:30 UTC
Vent 10 kt del Oest/Nord-Oest
Temperatura 17°C
Humitat 42%
Pressió 1020 hPa
Visibilitat 10 km o més
Núvols disperses a una alçada de 5000 ft

METAR: LWOH 271330Z 29010KT 9999 SCT050 17/04 Q1020

Hora: 04:35 (02:35 UTC)

Pronòstic

L'informe es va fer fa 3 hores i 5 minuts, a les 23:30 UTC
Pronòstic vàlid del 28 a les 00 UTC al 28 a les 24 UTC
Vent 8 kt del Nord
Visibilitat 10 km o més
Escasses núvols a una alçada de 5000 ft
Núvols disperses a una alçada de 9000 ft
Probabilitat 40% :
Temporalment
l' 28 a les 10 UTC al 28 a les 20 UTC
Vent 15 kt amb direcció variable
Escasses núvols a una alçada de 3300 ft, Cumulonimbus.
Cel ennuvolat a una alçada de 4000 ft
tempesta, pluja

TAF: LWOH 272330Z 2800/2824 36008KT 9999 FEW050 SCT090 PROB40 TEMPO 2810/2820 VRB15KT TSRA FEW033CB BKN040

Observacions i pronòstics meteorològics de més de 4000 aeroports (METAR i TAF).

Les estacions disponibles són els punts grocs i vermells al mapa.

Posi el ratolí al punt desitjat per veure el nom de l'estació.

Feu clic per veure les observacions i els pronòstics meteorològics.

Per canviar el mapa: feu clic els botons verds amb una creu de color negre per apropar; al botó verd amb un guió per allunyar la imatge; o en les fletxes verdes per a mapes adjacents.


METAR-TAF: